Latest Weather Observations for Moorabbin Airport

IDV60901

Issued at 1:31 pm EDT Wednesday 27 March 2019 (issued every 10 minutes, with the page automatically refreshed every 10 minutes)

About weather observations | Map of Melbourne area stations | Latest observations for Melbourne area | Other Formats
Station Details ID: 086077 Name: MOORABBIN AIRPORT Lat: -37.98 Lon: 145.10 Height: 12.1 m
Data from the previous 72 hours. | See also: Recent months at Moorabbin Airport
Date/Time
EDT
Temp
°C
App
Temp
°C
Dew
Point
°C
Rel
Hum
%
Delta-T
°C
Wind Press
QNH
hPa
Press
MSL
hPa
Rain since
9am
mm
Dir  Spd
km/h
Gust
km/h
Spd
kts
Gust
kts
27/01:30pm 18.6 15.2 9.1 54 4.9 SW 17 24 9 13 1022.9 1022.9 0.0
27/01:00pm 18.2 14.8 9.0 55 4.8 SW 17 20 9 11 1023.2 1023.2 0.0
27/12:30pm 17.9 14.9 9.3 57 4.5 SW 15 19 8 10 1023.4 1023.4 0.0
27/12:00pm 18.1 16.6 9.2 56 4.6 W 7 15 4 8 1023.8 1023.8 0.0
27/11:30am 18.1 16.3 8.1 52 5.1 ESE 7 13 4 7 1024.0 1024.0 0.0
27/11:00am 17.2 16.1 8.6 57 4.4 N 4 11 2 6 1024.4 1024.4 0.0
27/10:30am 15.9 13.8 8.2 60 3.9 N 9 13 5 7 1024.6 1024.6 0.0
27/10:00am 15.1 12.5 7.9 62 3.6 N 11 13 6 7 1024.6 1024.6 0.0
27/09:30am 14.4 11.4 7.7 64 3.3 NNW 13 15 7 8 1024.6 1024.6 0.0
27/09:00am 13.9 11.7 7.7 66 3.0 NNW 9 13 5 7 1024.5 1024.5 0.0
27/08:30am 13.7 11.0 7.5 66 3.0 NW 11 13 6 7 1024.4 1024.4 0.0
27/08:00am 13.6 10.6 7.6 67 2.9 NW 13 19 7 10 1024.2 1024.2 0.0
27/07:30am 13.7 10.7 7.9 68 2.9 NNW 13 17 7 9 1023.8 1023.8 0.0
27/07:00am 13.8 10.9 8.2 69 2.8 NW 13 15 7 8 1023.6 1023.6 0.0
27/06:30am 13.8 12.0 8.0 68 2.9 NW 7 13 4 7 1023.6 1023.6 0.0
27/06:00am 14.0 11.5 8.0 67 3.0 NNW 11 13 6 7 1023.2 1023.2 0.0
27/05:30am 14.1 11.2 8.3 68 2.9 N 13 15 7 8 1023.1 1023.1 0.0
27/05:00am 14.4 12.0 8.8 69 2.8 NNW 11 15 6 8 1022.9 1022.9 0.0
27/04:30am 14.4 12.0 8.6 68 2.9 NNW 11 13 6 7 1022.9 1022.9 0.0
27/04:00am 14.8 12.5 9.0 68 2.9 NNW 11 13 6 7 1023.0 1023.0 0.0
27/03:30am 15.0 12.8 9.4 69 2.9 NNW 11 15 6 8 1023.0 1023.0 0.0
27/03:00am 14.9 12.7 9.3 69 2.9 NNW 11 13 6 7 1023.2 1023.2 0.0
27/02:30am 14.7 12.8 8.9 68 2.9 N 9 11 5 6 1023.2 1023.2 0.0
27/02:00am 14.9 12.5 8.8 67 3.1 NNE 11 15 6 8 1023.3 1023.3 0.0
27/01:30am 14.6 13.1 8.5 67 3.1 N 6 7 3 4 1023.5 1023.5 0.0
27/01:00am 15.0 13.4 8.7 66 3.2 NE 7 9 4 5 1023.5 1023.5 0.0
27/12:30am 14.6 12.5 8.3 66 3.2 ENE 9 11 5 6 1023.6 1023.6 0.0
27/12:00am 15.2 13.3 8.9 66 3.2 NE 9 11 5 6 1023.7 1023.7 0.0
 
Date/Time
EDT
Temp
°C
App
Temp
°C
Dew
Point
°C
Rel
Hum
%
Delta-T
°C
Wind Press
QNH
hPa
Press
MSL
hPa
Rain since
9am
mm
Dir  Spd
km/h
Gust
km/h
Spd
kts
Gust
kts
26/11:30pm 14.9 12.8 8.4 65 3.3 NNE 9 11 5 6 1023.7 1023.7 0.0
26/11:00pm 16.1 13.2 8.1 59 4.0 SSW 13 20 7 11 1023.6 1023.6 0.0
26/10:30pm 15.9 13.0 8.2 60 3.9 SSW 13 20 7 11 1023.5 1023.5 0.0
26/10:00pm 16.0 12.7 8.2 60 3.9 SSW 15 20 8 11 1023.5 1023.5 0.0
26/09:30pm 16.1 12.6 8.8 62 3.7 SSW 17 20 9 11 1023.3 1023.3 0.0
26/09:00pm 15.8 12.8 9.2 65 3.4 SSW 15 22 8 12 1023.0 1023.0 0.0
26/08:30pm 16.2 12.2 9.2 63 3.6 SSW 20 28 11 15 1022.6 1022.6 0.0
26/08:00pm 15.9 11.8 7.7 58 4.1 SSW 19 26 10 14 1022.1 1022.1 0.0
26/07:30pm 16.2 11.7 8.7 61 3.8 SSW 22 30 12 16 1021.8 1021.8 0.0
26/07:00pm 16.5 12.7 9.0 61 3.9 SSW 19 28 10 15 1021.5 1021.5 0.0
26/06:30pm 17.1 13.5 8.3 56 4.5 SSW 17 26 9 14 1021.1 1021.1 0.0
26/06:00pm 17.4 13.5 8.8 57 4.4 SSW 19 28 10 15 1020.8 1020.8 0.0
26/05:30pm 17.6 13.5 8.5 55 4.7 SSW 20 30 11 16 1020.4 1020.4 0.0
26/05:00pm 18.3 14.5 9.1 55 4.8 S 19 26 10 14 1020.2 1020.2 0.0
26/04:30pm 18.4 14.2 7.5 49 5.5 SSW 19 26 10 14 1020.1 1020.1 0.0
26/04:00pm 18.2 13.8 6.7 47 5.7 SSW 19 24 10 13 1020.1 1020.1 0.0
26/03:30pm 18.8 14.9 7.3 47 5.8 SSW 17 24 9 13 1020.2 1020.2 0.0
26/03:00pm 18.3 14.8 7.1 48 5.6 WSW 15 20 8 11 1020.2 1020.2 0.0
26/02:30pm 18.3 14.3 6.8 47 5.7 WSW 17 26 9 14 1020.3 1020.3 0.0
26/02:00pm 17.7 13.2 6.3 47 5.6 WSW 19 28 10 15 1020.4 1020.4 0.0
26/01:30pm 17.2 12.4 5.8 47 5.5 WSW 20 32 11 17 1020.5 1020.5 0.0
26/01:00pm 17.8 12.9 6.7 48 5.5 WSW 22 32 12 17 1020.2 1020.2 0.0
26/12:30pm 18.0 12.2 6.2 46 5.8 WSW 26 39 14 21 1020.1 1020.1 0.0
26/12:00pm 17.9 12.2 6.7 48 5.5 W 26 43 14 23 1019.7 1019.7 0.0
26/11:30am 17.0 10.9 6.5 50 5.2 W 28 43 15 23 1019.5 1019.5 0.0
26/11:23am 17.3 11.2 6.5 49 5.3 W 28 46 15 25 1019.5 1019.5 0.0
26/11:00am 16.6 11.2 6.4 51 5.0 W 24 39 13 21 1019.3 1019.3 0.0
26/10:30am 16.1 10.9 7.3 56 4.4 W 24 41 13 22 1019.0 1019.0 0.0
26/10:00am 14.8 9.6 7.1 60 3.8 W 24 37 13 20 1018.6 1018.6 0.0
26/09:30am 14.0 9.4 6.4 60 3.7 WNW 20 32 11 17 1018.1 1018.1 0.0
26/09:00am 13.6 9.9 6.2 61 3.5 WNW 15 28 8 15 1017.8 1017.8 0.0
26/08:30am 13.3 8.6 6.2 62 3.4 NW 20 30 11 16 1017.2 1017.2 0.0
26/08:00am 12.7 7.3 6.5 66 3.0 WNW 24 37 13 20 1016.6 1016.6 0.0
26/07:30am 12.3 7.3 6.4 67 2.8 WNW 22 41 12 22 1016.2 1016.2 0.0
26/07:00am 12.5 8.4 6.1 65 3.0 NW 17 28 9 15 1015.9 1015.9 0.0
26/06:30am 12.2 7.2 6.3 67 2.8 WNW 22 39 12 21 1015.6 1015.6 0.0
26/06:00am 12.8 8.0 5.7 62 3.3 NW 20 30 11 16 1015.2 1015.2 0.0
26/05:30am 13.0 7.8 5.4 60 3.5 NW 22 30 12 16 1015.1 1015.1 0.0
26/05:00am 12.9 6.9 5.3 60 3.5 WNW 26 44 14 24 1014.6 1014.6 0.0
26/04:30am 13.1 7.8 5.0 58 3.7 NW 22 32 12 17 1014.5 1014.5 0.0
26/04:00am 12.9 8.0 5.1 59 3.6 WNW 20 33 11 18 1014.4 1014.4 0.0
26/03:31am 13.1 6.7 5.0 58 3.7 WNW 28 48 15 26 1014.5 1014.5 0.0
26/03:30am 13.1 7.0 5.0 58 3.7 WNW 26 48 14 26 1014.5 1014.5 0.0
26/03:00am 12.9 7.5 4.3 56 3.9 NW 22 32 12 17 1014.4 1014.4 0.0
26/02:30am 13.2 8.0 3.8 53 4.2 NW 20 32 11 17 1014.5 1014.5 0.0
26/02:00am 13.2 7.6 3.6 52 4.3 NW 22 37 12 20 1014.3 1014.3 0.0
26/01:30am 13.1 7.5 3.5 52 4.3 NW 22 30 12 16 1014.4 1014.4 0.0
26/01:00am 13.3 7.3 3.1 50 4.5 NW 24 39 13 21 1014.4 1014.4 0.0
26/12:35am 13.3 6.4 2.5 48 4.7 NW 28 46 15 25 1014.1 1014.1 0.0
26/12:30am 13.2 7.5 2.7 49 4.6 NW 22 39 12 21 1014.1 1014.1 0.0
26/12:00am 13.2 8.3 2.1 47 4.8 NW 17 22 9 12 1013.9 1013.9 0.0
 
Date/Time
EDT
Temp
°C
App
Temp
°C
Dew
Point
°C
Rel
Hum
%
Delta-T
°C
Wind Press
QNH
hPa
Press
MSL
hPa
Rain since
9am
mm
Dir  Spd
km/h
Gust
km/h
Spd
kts
Gust
kts
25/11:30pm 13.7 7.5 2.3 46 5.0 WNW 24 35 13 19 1013.7 1013.7 0.0
25/11:00pm 13.8 8.2 1.5 43 5.3 WNW 20 35 11 19 1013.7 1013.7 0.0
25/10:30pm 13.9 7.5 1.2 42 5.4 WNW 24 44 13 24 1013.7 1013.7 0.0
25/10:00pm 14.4 8.1 1.7 42 5.5 WNW 24 39 13 21 1013.4 1013.4 0.0
25/09:30pm 14.8 7.5 0.3 37 6.1 WNW 28 37 15 20 1012.9 1012.9 0.0
25/09:00pm 14.9 9.0 1.4 40 5.9 WNW 22 35 12 19 1012.5 1012.5 0.0
25/08:30pm 15.3 8.5 0.7 37 6.3 WNW 26 46 14 25 1012.0 1012.0 0.0
25/08:00pm 15.9 7.4 0.9 36 6.5 WNW 35 54 19 29 1011.2 1011.2 0.0
25/07:30pm 16.2 8.2 0.7 35 6.7 W 32 50 17 27 1010.9 1010.9 0.0
25/07:26pm 16.3 9.1 0.8 35 6.7 W 28 48 15 26 1010.8 1010.8 0.0
25/07:00pm 16.5 10.9 1.0 35 6.8 WNW 20 35 11 19 1010.3 1010.3 0.0
25/06:30pm 16.5 9.2 0.2 33 7.0 WNW 28 46 15 25 1009.8 1009.8 0.0
25/06:03pm 16.9 9.2 0.1 32 7.2 W 30 48 16 26 1009.2 1009.2 0.0
25/06:00pm 16.7 8.4 -0.1 32 7.2 W 33 48 18 26 1009.2 1009.2 0.0
25/05:40pm 17.1 9.5 0.3 32 7.3 W 30 48 16 26 1009.0 1009.0 0.0
25/05:30pm 17.2 9.4 -0.5 30 7.5 W 30 43 16 23 1009.0 1009.0 0.0
25/05:00pm 17.7 8.9 -1.0 28 7.9 W 35 56 19 30 1008.8 1008.8 0.0
25/04:38pm 17.7 9.4 -0.5 29 7.8 W 33 56 18 30 1008.7 1008.7 0.0
25/04:30pm 17.6 9.6 0.3 31 7.5 W 32 48 17 26 1008.7 1008.7 0.0
25/04:00pm 16.9 9.7 3.2 40 6.3 WNW 30 50 16 27 1008.7 1008.7 0.0
25/03:44pm 16.2 8.5 3.6 43 5.8 WNW 33 46 18 25 1008.7 1008.7 0.0
25/03:30pm 15.6 7.2 3.7 45 5.5 W 37 57 20 31 1009.0 1009.0 0.0
25/03:02pm 15.6 8.1 4.3 47 5.3 W 33 52 18 28 1009.0 1009.0 0.0
25/03:00pm 15.6 8.1 4.3 47 5.3 W 33 48 18 26 1009.0 1009.0 0.0
25/02:30pm 14.6 7.0 5.9 56 4.2 WSW 35 56 19 30 1009.0 1009.0 0.0
25/02:00pm 17.5 10.6 6.4 48 5.5 W 32 50 17 27 1008.3 1008.3 0.0
25/01:30pm 16.9 8.0 2.9 39 6.4 WNW 39 61 21 33 1007.7 1007.7 0.0
25/01:00pm 15.8 7.9 4.2 46 5.4 WNW 35 56 19 30 1007.4 1007.4 0.0
25/12:31pm 16.5 8.8 3.6 42 6.0 WNW 33 52 18 28 1006.8 1006.8 0.0
25/12:30pm 16.7 9.1 4.1 43 5.9 WNW 33 50 18 27 1006.8 1006.8 0.0
25/12:02pm 17.6 8.9 4.2 41 6.3 WNW 39 59 21 32 1006.3 1006.3 0.0
25/12:00pm 17.1 9.2 4.1 42 6.1 WNW 35 52 19 28 1006.3 1006.3 0.0
25/11:30am 16.3 8.8 3.7 43 5.8 WNW 32 56 17 30 1006.4 1006.4 0.0
25/11:00am 16.0 7.5 3.4 43 5.8 WNW 37 59 20 32 1006.4 1006.4 0.0
25/10:31am 15.7 8.2 4.7 48 5.2 WNW 33 52 18 28 1006.2 1006.2 0.0
25/10:30am 15.8 8.0 4.8 48 5.2 WNW 35 52 19 28 1006.2 1006.2 0.0
25/10:06am 15.4 8.7 5.6 52 4.7 WNW 30 48 16 26 1005.9 1005.9 0.0
25/10:00am 15.2 7.9 5.4 52 4.7 WNW 33 46 18 25 1005.9 1005.9 0.0
25/09:30am 14.6 7.4 5.7 55 4.2 WNW 33 54 18 29 1005.6 1005.6 0.0
25/09:05am 14.9 7.7 5.7 54 4.4 W 33 56 18 30 1005.0 1005.0 0.0
25/09:00am 15.1 8.0 5.6 53 4.5 WNW 32 46 17 25 1005.0 1005.0 6.2
25/08:30am 15.1 6.8 5.9 54 4.4 W 39 59 21 32 1004.6 1004.6 6.2
25/08:00am 16.4 9.4 6.8 53 4.8 WNW 33 54 18 29 1003.9 1003.9 6.2
25/07:33am 16.3 10.1 8.0 58 4.2 W 30 56 16 30 1003.3 1003.3 6.2
25/07:30am 16.2 10.4 7.9 58 4.2 W 28 43 15 23 1003.3 1003.3 6.2
25/07:00am 16.2 11.0 8.7 61 3.9 W 26 43 14 23 1003.1 1003.1 6.2
25/06:30am 17.6 13.1 8.7 56 4.6 WNW 22 39 12 21 1002.5 1002.5 6.2
25/06:00am 17.9 12.7 8.7 55 4.8 WNW 26 41 14 22 1002.1 1002.1 6.2
25/05:30am 18.1 12.2 9.2 56 4.7 WNW 30 48 16 26 1001.6 1001.6 6.2
25/05:17am 18.3 13.0 9.9 58 4.5 NW 28 50 15 27 1001.5 1001.5 6.2
25/05:00am 18.1 14.8 11.7 66 3.5 NW 20 35 11 19 1001.3 1001.3 6.2
25/04:30am 18.0 13.6 11.6 66 3.5 WNW 26 41 14 22 1000.7 1000.7 6.2
25/04:00am 17.7 14.0 11.5 67 3.4 W 22 33 12 18 1000.6 1000.6 6.2
25/03:30am 17.9 13.9 11.7 67 3.4 W 24 39 13 21 1000.3 1000.3 6.2
25/03:00am 20.7 17.7 13.6 64 4.1 NW 22 37 12 20 999.8 999.8 6.2
25/02:30am 21.3 16.3 13.5 61 4.5 WNW 32 56 17 30 999.3 999.3 6.2
25/02:21am 21.3 16.9 14.2 64 4.1 NW 30 48 16 26 999.5 999.5 6.2
25/02:00am 21.2 18.5 16.6 75 2.8 NW 26 39 14 21 999.4 999.4 6.2
25/01:30am 20.7 19.5 17.5 82 2.0 NW 20 32 11 17 999.1 999.1 6.2
25/01:18am 20.4 19.2 17.6 84 1.7 NW 20 32 11 17 999.4 999.4 6.2
25/01:00am 19.8 16.7 16.6 82 1.9 WNW 28 48 15 26 999.6 999.6 6.0
25/12:58am 20.1 17.0 16.5 80 2.2 NW 28 48 15 26 999.7 999.7 5.8
25/12:50am 22.1 19.2 17.0 73 3.1 NNW 28 39 15 21 998.9 998.9 3.2
25/12:30am 23.4 19.0 16.7 66 4.1 NNW 35 50 19 27 998.8 998.8 2.0
25/12:00am 23.3 19.0 16.8 67 4.0 N 35 61 19 33 999.3 999.3 2.0
 
Date/Time
EDT
Temp
°C
App
Temp
°C
Dew
Point
°C
Rel
Hum
%
Delta-T
°C
Wind Press
QNH
hPa
Press
MSL
hPa
Rain since
9am
mm
Dir  Spd
km/h
Gust
km/h
Spd
kts
Gust
kts
24/11:46pm 23.1 19.5 17.1 69 3.7 NNW 32 50 17 27 999.1 999.1 2.0
24/11:45pm 23.1 19.5 17.1 69 3.7 NNW 32 43 17 23 999.2 999.2 2.0
24/11:30pm 21.9 18.1 17.3 75 2.8 NNW 33 54 18 29 999.4 999.4 2.0
24/11:28pm 21.8 17.5 17.0 74 2.9 NNW 35 54 19 29 999.5 999.5 1.8
24/11:24pm 22.3 17.1 16.6 70 3.5 NNW 39 54 21 29 999.8 999.8 0.8
24/11:00pm 25.0 17.7 15.6 56 5.7 N 48 67 26 36 999.2 999.2 0.0
24/10:30pm 25.3 18.4 15.6 55 5.9 N 46 65 25 35 999.1 999.1 0.0
24/10:20pm 25.5 19.6 15.8 55 5.9 N 41 69 22 37 999.3 999.3 0.0
24/10:10pm 25.5 21.3 15.8 55 5.9 N 32 50 17 27 999.1 999.1 0.0
24/10:00pm 25.5 20.7 15.5 54 6.1 N 35 48 19 26 999.4 999.4 0.0
24/09:33pm 25.5 20.0 15.8 55 5.9 NNW 39 57 21 31 999.9 999.9 0.0
24/09:30pm 25.5 20.4 15.8 55 5.9 NNW 37 54 20 29 999.9 999.9 0.0
24/09:02pm 25.9 20.6 15.3 52 6.4 N 37 56 20 30 999.9 999.9 0.0
24/09:00pm 25.9 21.0 15.3 52 6.4 N 35 50 19 27 1000.0 1000.0 0.0
24/08:30pm 25.9 21.6 15.3 52 6.4 N 32 48 17 26 1000.3 1000.3 0.0
24/08:00pm 26.1 21.2 15.2 51 6.6 N 35 46 19 25 1000.3 1000.3 0.0
24/07:32pm 26.6 22.0 15.0 49 7.0 NNW 33 52 18 28 1000.7 1000.7 0.0
24/07:30pm 26.6 22.0 15.0 49 7.0 NNW 33 48 18 26 1000.8 1000.8 0.0
24/07:06pm 26.9 22.7 14.6 46 7.4 NNW 30 54 16 29 1001.0 1001.0 0.0
24/07:00pm 27.0 23.6 14.7 47 7.4 NNW 26 39 14 21 1001.1 1001.1 0.0
24/06:30pm 27.3 22.6 14.3 45 7.8 NNW 32 57 17 31 1001.4 1001.4 0.0
24/06:02pm 27.4 22.1 14.1 44 7.9 N 35 54 19 29 1001.7 1001.7 0.0
24/06:00pm 27.4 21.7 14.1 44 8.0 N 37 54 20 29 1001.7 1001.7 0.0
24/05:32pm 27.5 22.6 13.8 43 8.1 NNW 32 50 17 27 1002.1 1002.1 0.0
24/05:30pm 27.7 22.7 14.0 43 8.2 N 33 50 18 27 1002.2 1002.2 0.0
24/05:00pm 27.2 20.9 13.5 42 8.1 NNW 39 57 21 31 1002.8 1002.8 0.0
24/04:30pm 27.6 19.7 12.8 40 8.7 N 46 65 25 35 1002.8 1002.8 0.0
24/04:24pm 27.6 19.7 12.8 40 8.7 N 46 65 25 35 1002.7 1002.7 0.0
24/04:00pm 28.3 20.8 12.2 37 9.4 N 43 57 23 31 1002.8 1002.8 0.0
24/03:40pm 30.7 24.5 12.6 33 10.7 N 37 56 20 30 1003.0 1003.0 0.0
24/03:30pm 30.0 23.1 11.5 32 10.7 N 39 50 21 27 1003.0 1003.0 0.0
24/03:17pm 30.4 24.3 11.9 32 10.8 N 35 54 19 29 1003.3 1003.3 0.0
24/03:00pm 30.4 24.5 12.3 33 10.7 N 35 46 19 25 1003.6 1003.6 0.0
24/02:39pm 30.0 24.2 11.5 32 10.7 N 33 52 18 28 1004.2 1004.2 0.0
24/02:30pm 30.2 24.1 11.7 32 10.8 N 35 48 19 26 1004.2 1004.2 0.0
24/02:05pm 29.3 23.1 11.4 33 10.3 N 35 54 19 29 1004.8 1004.8 0.0
24/02:00pm 28.8 22.6 11.4 34 10.0 N 35 46 19 25 1005.0 1005.0 0.0

Latest Capital City Observations: Canberra | Sydney | Melbourne | Brisbane | Adelaide | Perth | Hobart | Darwin

Other formats

Comma delimited format used in spreadsheet applications
http://www.bom.gov.au/fwo/IDV60901/IDV60901.94870.axf

JavaScript Object Notation format (JSON) in row-major order
http://www.bom.gov.au/fwo/IDV60901/IDV60901.94870.json

Data quality

Most of these data are generated automatically and are frequently updated. Quality checks on data are not normally performed. It is possible for incorrect values to appear. Refer to information at About Latest Weather Observations and please check the disclaimer before using these data.